sensor_id;sensor_type;location;lat;lon;timestamp;temperature;humidity
19952;DHT22;10137;49.406;19.484;2023-07-31T00:01:49;14.40;99.90
19952;DHT22;10137;49.406;19.484;2023-07-31T00:04:19;14.40;99.90
19952;DHT22;10137;49.406;19.484;2023-07-31T00:06:48;14.50;99.90
19952;DHT22;10137;49.406;19.484;2023-07-31T00:09:19;14.60;99.90
19952;DHT22;10137;49.406;19.484;2023-07-31T00:11:46;14.60;99.90
19952;DHT22;10137;49.406;19.484;2023-07-31T00:14:17;14.50;99.90
19952;DHT22;10137;49.406;19.484;2023-07-31T00:16:45;14.60;99.90
19952;DHT22;10137;49.406;19.484;2023-07-31T00:19:13;14.60;99.90
19952;DHT22;10137;49.406;19.484;2023-07-31T00:21:41;14.60;99.90
19952;DHT22;10137;49.406;19.484;2023-07-31T00:24:09;14.50;99.90
19952;DHT22;10137;49.406;19.484;2023-07-31T00:26:42;14.50;99.90
19952;DHT22;10137;49.406;19.484;2023-07-31T00:29:09;14.50;99.90
19952;DHT22;10137;49.406;19.484;2023-07-31T00:31:38;14.50;99.90
19952;DHT22;10137;49.406;19.484;2023-07-31T00:34:06;14.40;99.90
19952;DHT22;10137;49.406;19.484;2023-07-31T00:36:34;14.40;99.90
19952;DHT22;10137;49.406;19.484;2023-07-31T00:39:02;14.30;99.90
19952;DHT22;10137;49.406;19.484;2023-07-31T00:41:33;14.30;99.90
19952;DHT22;10137;49.406;19.484;2023-07-31T00:44:02;14.30;99.90
19952;DHT22;10137;49.406;19.484;2023-07-31T00:46:31;14.30;99.90
19952;DHT22;10137;49.406;19.484;2023-07-31T00:48:59;14.40;99.90
19952;DHT22;10137;49.406;19.484;2023-07-31T00:51:27;14.50;99.90
19952;DHT22;10137;49.406;19.484;2023-07-31T00:53:56;14.50;99.90
19952;DHT22;10137;49.406;19.484;2023-07-31T00:56:26;14.50;99.90
19952;DHT22;10137;49.406;19.484;2023-07-31T00:59:02;14.60;99.90
19952;DHT22;10137;49.406;19.484;2023-07-31T01:01:30;14.60;99.90
19952;DHT22;10137;49.406;19.484;2023-07-31T01:03:58;14.60;99.90
19952;DHT22;10137;49.406;19.484;2023-07-31T01:06:33;14.60;99.90
19952;DHT22;10137;49.406;19.484;2023-07-31T01:09:10;14.70;99.90
19952;DHT22;10137;49.406;19.484;2023-07-31T01:11:46;14.70;99.90
19952;DHT22;10137;49.406;19.484;2023-07-31T01:14:18;14.70;99.90
19952;DHT22;10137;49.406;19.484;2023-07-31T01:16:46;14.70;99.90
19952;DHT22;10137;49.406;19.484;2023-07-31T01:19:15;14.70;99.90
19952;DHT22;10137;49.406;19.484;2023-07-31T01:24:55;14.70;99.90
19952;DHT22;10137;49.406;19.484;2023-07-31T01:27:32;14.70;99.90
19952;DHT22;10137;49.406;19.484;2023-07-31T01:30:08;14.70;99.90
19952;DHT22;10137;49.406;19.484;2023-07-31T01:32:42;14.70;99.90
19952;DHT22;10137;49.406;19.484;2023-07-31T01:35:11;14.70;99.90
19952;DHT22;10137;49.406;19.484;2023-07-31T01:37:39;14.70;99.90
19952;DHT22;10137;49.406;19.484;2023-07-31T01:40:08;14.70;99.90
19952;DHT22;10137;49.406;19.484;2023-07-31T01:42:38;14.70;99.90
19952;DHT22;10137;49.406;19.484;2023-07-31T01:45:10;14.70;99.90
19952;DHT22;10137;49.406;19.484;2023-07-31T01:47:38;14.70;99.90
19952;DHT22;10137;49.406;19.484;2023-07-31T01:50:06;14.70;99.90
19952;DHT22;10137;49.406;19.484;2023-07-31T01:52:35;14.70;99.90
19952;DHT22;10137;49.406;19.484;2023-07-31T01:55:08;14.70;99.90
19952;DHT22;10137;49.406;19.484;2023-07-31T01:57:40;14.60;99.90
19952;DHT22;10137;49.406;19.484;2023-07-31T02:00:12;14.60;99.90
19952;DHT22;10137;49.406;19.484;2023-07-31T02:02:39;14.70;99.90
19952;DHT22;10137;49.406;19.484;2023-07-31T02:05:07;14.70;99.90
19952;DHT22;10137;49.406;19.484;2023-07-31T02:07:37;14.70;99.90
19952;DHT22;10137;49.406;19.484;2023-07-31T02:10:08;14.70;99.90
19952;DHT22;10137;49.406;19.484;2023-07-31T02:12:41;14.80;99.90
19952;DHT22;10137;49.406;19.484;2023-07-31T02:15:10;14.80;99.90
19952;DHT22;10137;49.406;19.484;2023-07-31T02:17:38;14.90;99.90
19952;DHT22;10137;49.406;19.484;2023-07-31T02:20:07;14.90;99.90
19952;DHT22;10137;49.406;19.484;2023-07-31T02:22:34;14.90;99.90
19952;DHT22;10137;49.406;19.484;2023-07-31T02:25:04;14.80;99.90
19952;DHT22;10137;49.406;19.484;2023-07-31T02:27:33;14.90;99.90
19952;DHT22;10137;49.406;19.484;2023-07-31T02:30:03;14.80;99.90
19952;DHT22;10137;49.406;19.484;2023-07-31T02:32:31;14.80;99.90
19952;DHT22;10137;49.406;19.484;2023-07-31T02:34:59;14.80;99.90
19952;DHT22;10137;49.406;19.484;2023-07-31T02:37:27;14.80;99.90
19952;DHT22;10137;49.406;19.484;2023-07-31T02:39:56;14.80;99.90
19952;DHT22;10137;49.406;19.484;2023-07-31T02:42:26;14.80;99.90
19952;DHT22;10137;49.406;19.484;2023-07-31T02:44:54;14.80;99.90
19952;DHT22;10137;49.406;19.484;2023-07-31T02:47:24;14.80;99.90
19952;DHT22;10137;49.406;19.484;2023-07-31T02:49:53;14.70;99.90
19952;DHT22;10137;49.406;19.484;2023-07-31T02:52:21;14.80;99.90
19952;DHT22;10137;49.406;19.484;2023-07-31T02:54:49;14.80;99.90
19952;DHT22;10137;49.406;19.484;2023-07-31T02:57:18;14.70;99.90
19952;DHT22;10137;49.406;19.484;2023-07-31T02:59:46;14.70;99.90
19952;DHT22;10137;49.406;19.484;2023-07-31T03:02:17;14.70;99.90
19952;DHT22;10137;49.406;19.484;2023-07-31T03:04:45;14.60;99.90
19952;DHT22;10137;49.406;19.484;2023-07-31T03:07:14;14.70;99.90
19952;DHT22;10137;49.406;19.484;2023-07-31T03:09:42;14.70;99.90
19952;DHT22;10137;49.406;19.484;2023-07-31T03:12:10;14.70;99.90
19952;DHT22;10137;49.406;19.484;2023-07-31T03:14:37;14.80;99.90
19952;DHT22;10137;49.406;19.484;2023-07-31T03:17:09;14.80;99.90
19952;DHT22;10137;49.406;19.484;2023-07-31T03:19:47;14.80;99.90
19952;DHT22;10137;49.406;19.484;2023-07-31T03:22:14;14.80;99.90
19952;DHT22;10137;49.406;19.484;2023-07-31T03:24:41;14.80;99.90
19952;DHT22;10137;49.406;19.484;2023-07-31T03:27:10;14.80;99.90
19952;DHT22;10137;49.406;19.484;2023-07-31T03:29:38;14.80;99.90
19952;DHT22;10137;49.406;19.484;2023-07-31T03:32:07;14.90;99.90
19952;DHT22;10137;49.406;19.484;2023-07-31T03:34:34;14.90;99.90
19952;DHT22;10137;49.406;19.484;2023-07-31T03:37:08;14.90;99.90
19952;DHT22;10137;49.406;19.484;2023-07-31T03:39:37;14.90;99.90
19952;DHT22;10137;49.406;19.484;2023-07-31T03:42:05;14.90;99.90
19952;DHT22;10137;49.406;19.484;2023-07-31T03:44:33;14.90;99.90
19952;DHT22;10137;49.406;19.484;2023-07-31T03:47:01;15.00;99.90
19952;DHT22;10137;49.406;19.484;2023-07-31T03:49:30;15.00;99.90
19952;DHT22;10137;49.406;19.484;2023-07-31T03:51:59;15.10;99.90
19952;DHT22;10137;49.406;19.484;2023-07-31T03:54:28;15.10;99.90
19952;DHT22;10137;49.406;19.484;2023-07-31T03:56:56;15.10;99.90
19952;DHT22;10137;49.406;19.484;2023-07-31T03:59:24;15.10;99.90
19952;DHT22;10137;49.406;19.484;2023-07-31T04:02:06;15.10;99.90
19952;DHT22;10137;49.406;19.484;2023-07-31T04:04:34;15.20;99.90
19952;DHT22;10137;49.406;19.484;2023-07-31T04:07:04;15.20;99.90
19952;DHT22;10137;49.406;19.484;2023-07-31T04:09:33;15.20;99.90
19952;DHT22;10137;49.406;19.484;2023-07-31T04:12:01;15.20;99.90
19952;DHT22;10137;49.406;19.484;2023-07-31T04:14:30;15.20;99.90
19952;DHT22;10137;49.406;19.484;2023-07-31T04:16:58;15.20;99.90
19952;DHT22;10137;49.406;19.484;2023-07-31T04:19:26;15.30;99.90
19952;DHT22;10137;49.406;19.484;2023-07-31T04:21:54;15.30;99.90
19952;DHT22;10137;49.406;19.484;2023-07-31T04:24:23;15.40;99.90
19952;DHT22;10137;49.406;19.484;2023-07-31T04:26:53;15.40;99.90
19952;DHT22;10137;49.406;19.484;2023-07-31T04:29:21;15.40;99.90
19952;DHT22;10137;49.406;19.484;2023-07-31T04:31:51;15.40;99.90
19952;DHT22;10137;49.406;19.484;2023-07-31T04:34:22;15.40;99.90
19952;DHT22;10137;49.406;19.484;2023-07-31T04:36:51;15.40;99.90
19952;DHT22;10137;49.406;19.484;2023-07-31T04:39:19;15.40;99.90
19952;DHT22;10137;49.406;19.484;2023-07-31T04:41:47;15.50;99.90
19952;DHT22;10137;49.406;19.484;2023-07-31T04:44:20;15.50;99.90
19952;DHT22;10137;49.406;19.484;2023-07-31T04:46:49;15.50;99.90
19952;DHT22;10137;49.406;19.484;2023-07-31T04:49:17;15.50;99.90
19952;DHT22;10137;49.406;19.484;2023-07-31T04:51:46;15.50;99.90
19952;DHT22;10137;49.406;19.484;2023-07-31T04:54:16;15.50;99.90
19952;DHT22;10137;49.406;19.484;2023-07-31T04:56:44;15.60;99.90
19952;DHT22;10137;49.406;19.484;2023-07-31T04:59:12;15.60;99.90
19952;DHT22;10137;49.406;19.484;2023-07-31T05:01:41;15.70;99.90
19952;DHT22;10137;49.406;19.484;2023-07-31T05:04:13;15.70;99.90
19952;DHT22;10137;49.406;19.484;2023-07-31T05:06:43;15.80;99.90
19952;DHT22;10137;49.406;19.484;2023-07-31T05:09:11;15.80;99.90
19952;DHT22;10137;49.406;19.484;2023-07-31T05:11:39;15.90;99.90
19952;DHT22;10137;49.406;19.484;2023-07-31T05:14:08;15.90;99.90
19952;DHT22;10137;49.406;19.484;2023-07-31T05:16:35;15.90;99.90
19952;DHT22;10137;49.406;19.484;2023-07-31T05:19:03;16.00;99.90
19952;DHT22;10137;49.406;19.484;2023-07-31T05:21:30;16.00;99.90
19952;DHT22;10137;49.406;19.484;2023-07-31T05:23:57;16.00;99.90
19952;DHT22;10137;49.406;19.484;2023-07-31T05:26:25;16.10;99.90
19952;DHT22;10137;49.406;19.484;2023-07-31T05:28:52;16.20;99.90
19952;DHT22;10137;49.406;19.484;2023-07-31T05:31:19;16.20;99.90
19952;DHT22;10137;49.406;19.484;2023-07-31T05:33:46;16.30;99.90
19952;DHT22;10137;49.406;19.484;2023-07-31T05:36:17;16.40;99.90
19952;DHT22;10137;49.406;19.484;2023-07-31T05:38:44;16.40;99.90
19952;DHT22;10137;49.406;19.484;2023-07-31T05:41:11;16.50;99.90
19952;DHT22;10137;49.406;19.484;2023-07-31T05:43:38;16.60;99.90
19952;DHT22;10137;49.406;19.484;2023-07-31T05:46:06;16.60;99.90
19952;DHT22;10137;49.406;19.484;2023-07-31T05:48:34;16.60;99.90
19952;DHT22;10137;49.406;19.484;2023-07-31T05:51:01;16.60;99.90
19952;DHT22;10137;49.406;19.484;2023-07-31T05:53:30;16.60;99.90
19952;DHT22;10137;49.406;19.484;2023-07-31T05:55:57;16.50;99.90
19952;DHT22;10137;49.406;19.484;2023-07-31T05:58:24;16.40;99.90
19952;DHT22;10137;49.406;19.484;2023-07-31T06:00:51;16.30;99.90
19952;DHT22;10137;49.406;19.484;2023-07-31T06:03:18;16.20;99.90
19952;DHT22;10137;49.406;19.484;2023-07-31T06:05:44;16.20;99.90
19952;DHT22;10137;49.406;19.484;2023-07-31T06:08:11;16.10;99.90
19952;DHT22;10137;49.406;19.484;2023-07-31T06:10:39;16.00;99.90
19952;DHT22;10137;49.406;19.484;2023-07-31T06:13:06;16.00;99.90
19952;DHT22;10137;49.406;19.484;2023-07-31T06:15:33;16.00;99.90
19952;DHT22;10137;49.406;19.484;2023-07-31T06:18:00;16.00;99.90
19952;DHT22;10137;49.406;19.484;2023-07-31T06:20:30;16.00;99.90
19952;DHT22;10137;49.406;19.484;2023-07-31T06:22:59;16.00;99.90
19952;DHT22;10137;49.406;19.484;2023-07-31T06:25:27;16.00;99.90
19952;DHT22;10137;49.406;19.484;2023-07-31T06:27:56;16.00;99.90
19952;DHT22;10137;49.406;19.484;2023-07-31T06:30:25;16.00;99.90
19952;DHT22;10137;49.406;19.484;2023-07-31T06:32:55;16.10;99.90
19952;DHT22;10137;49.406;19.484;2023-07-31T06:35:22;16.10;99.90
19952;DHT22;10137;49.406;19.484;2023-07-31T06:37:53;16.20;99.90
19952;DHT22;10137;49.406;19.484;2023-07-31T06:40:23;16.20;99.90
19952;DHT22;10137;49.406;19.484;2023-07-31T06:42:51;16.30;99.90
19952;DHT22;10137;49.406;19.484;2023-07-31T06:45:23;16.30;99.90
19952;DHT22;10137;49.406;19.484;2023-07-31T06:47:53;16.40;99.90
19952;DHT22;10137;49.406;19.484;2023-07-31T06:50:25;16.60;99.90
19952;DHT22;10137;49.406;19.484;2023-07-31T06:52:53;16.70;99.90
19952;DHT22;10137;49.406;19.484;2023-07-31T06:55:22;16.80;99.90
19952;DHT22;10137;49.406;19.484;2023-07-31T06:57:50;16.80;99.90
19952;DHT22;10137;49.406;19.484;2023-07-31T07:00:20;16.90;99.90
19952;DHT22;10137;49.406;19.484;2023-07-31T07:02:53;16.90;99.90
19952;DHT22;10137;49.406;19.484;2023-07-31T07:05:21;16.90;99.90
19952;DHT22;10137;49.406;19.484;2023-07-31T07:07:50;17.00;99.90
19952;DHT22;10137;49.406;19.484;2023-07-31T07:10:17;16.90;99.90
19952;DHT22;10137;49.406;19.484;2023-07-31T07:12:46;17.00;99.90
19952;DHT22;10137;49.406;19.484;2023-07-31T07:15:15;17.00;99.90
19952;DHT22;10137;49.406;19.484;2023-07-31T07:17:45;17.10;99.90
19952;DHT22;10137;49.406;19.484;2023-07-31T07:20:15;17.10;99.90
19952;DHT22;10137;49.406;19.484;2023-07-31T07:22:46;17.10;99.90
19952;DHT22;10137;49.406;19.484;2023-07-31T07:25:15;17.20;99.90
19952;DHT22;10137;49.406;19.484;2023-07-31T07:27:42;17.10;99.90
19952;DHT22;10137;49.406;19.484;2023-07-31T07:30:10;17.10;99.90
19952;DHT22;10137;49.406;19.484;2023-07-31T07:32:38;17.10;99.90
19952;DHT22;10137;49.406;19.484;2023-07-31T07:35:07;17.10;99.90
19952;DHT22;10137;49.406;19.484;2023-07-31T07:37:37;17.20;99.90
19952;DHT22;10137;49.406;19.484;2023-07-31T07:40:11;17.20;99.90
19952;DHT22;10137;49.406;19.484;2023-07-31T07:42:39;17.30;99.90
19952;DHT22;10137;49.406;19.484;2023-07-31T07:45:07;17.30;99.90
19952;DHT22;10137;49.406;19.484;2023-07-31T07:47:37;17.40;99.90
19952;DHT22;10137;49.406;19.484;2023-07-31T07:50:06;17.40;99.90
19952;DHT22;10137;49.406;19.484;2023-07-31T07:52:35;17.30;99.90
19952;DHT22;10137;49.406;19.484;2023-07-31T07:55:04;17.30;99.90
19952;DHT22;10137;49.406;19.484;2023-07-31T07:57:31;17.40;99.90
19952;DHT22;10137;49.406;19.484;2023-07-31T07:59:59;17.40;99.90
19952;DHT22;10137;49.406;19.484;2023-07-31T08:02:26;17.40;99.90
19952;DHT22;10137;49.406;19.484;2023-07-31T08:04:53;17.60;99.90
19952;DHT22;10137;49.406;19.484;2023-07-31T08:07:22;17.70;99.90
19952;DHT22;10137;49.406;19.484;2023-07-31T08:09:51;18.00;99.90
19952;DHT22;10137;49.406;19.484;2023-07-31T08:12:20;18.20;99.90
19952;DHT22;10137;49.406;19.484;2023-07-31T08:14:47;18.30;99.90
19952;DHT22;10137;49.406;19.484;2023-07-31T08:17:15;18.50;99.90
19952;DHT22;10137;49.406;19.484;2023-07-31T08:19:43;18.50;99.90
19952;DHT22;10137;49.406;19.484;2023-07-31T08:22:12;18.50;99.90
19952;DHT22;10137;49.406;19.484;2023-07-31T08:24:41;18.40;99.90
19952;DHT22;10137;49.406;19.484;2023-07-31T08:27:10;18.50;99.90
19952;DHT22;10137;49.406;19.484;2023-07-31T08:29:39;18.50;99.90
19952;DHT22;10137;49.406;19.484;2023-07-31T08:32:06;18.60;99.90
19952;DHT22;10137;49.406;19.484;2023-07-31T08:34:34;18.60;99.90
19952;DHT22;10137;49.406;19.484;2023-07-31T08:37:03;18.70;99.90
19952;DHT22;10137;49.406;19.484;2023-07-31T08:39:30;18.60;99.90
19952;DHT22;10137;49.406;19.484;2023-07-31T08:41:58;18.60;99.90
19952;DHT22;10137;49.406;19.484;2023-07-31T08:44:30;18.60;99.90
19952;DHT22;10137;49.406;19.484;2023-07-31T08:47:02;18.60;99.90
19952;DHT22;10137;49.406;19.484;2023-07-31T08:49:31;18.80;99.90
19952;DHT22;10137;49.406;19.484;2023-07-31T08:52:01;19.10;99.90
19952;DHT22;10137;49.406;19.484;2023-07-31T08:54:30;19.60;99.90
19952;DHT22;10137;49.406;19.484;2023-07-31T08:57:00;20.10;99.90
19952;DHT22;10137;49.406;19.484;2023-07-31T08:59:29;20.60;99.90
19952;DHT22;10137;49.406;19.484;2023-07-31T09:02:07;20.80;99.90
19952;DHT22;10137;49.406;19.484;2023-07-31T09:04:38;21.00;99.90
19952;DHT22;10137;49.406;19.484;2023-07-31T09:07:06;20.80;99.90
19952;DHT22;10137;49.406;19.484;2023-07-31T09:09:36;20.80;99.90
19952;DHT22;10137;49.406;19.484;2023-07-31T09:12:04;20.80;99.90
19952;DHT22;10137;49.406;19.484;2023-07-31T09:14:32;20.90;99.90
19952;DHT22;10137;49.406;19.484;2023-07-31T09:17:01;21.10;99.90
19952;DHT22;10137;49.406;19.484;2023-07-31T09:19:33;21.60;99.90
19952;DHT22;10137;49.406;19.484;2023-07-31T09:22:02;22.00;99.90
19952;DHT22;10137;49.406;19.484;2023-07-31T09:24:32;22.40;99.90
19952;DHT22;10137;49.406;19.484;2023-07-31T09:27:01;22.50;99.90
19952;DHT22;10137;49.406;19.484;2023-07-31T09:29:29;22.70;99.90
19952;DHT22;10137;49.406;19.484;2023-07-31T09:31:56;22.90;99.90
19952;DHT22;10137;49.406;19.484;2023-07-31T09:34:36;22.90;99.90
19952;DHT22;10137;49.406;19.484;2023-07-31T09:37:05;23.00;99.90
19952;DHT22;10137;49.406;19.484;2023-07-31T09:39:45;22.80;99.90
19952;DHT22;10137;49.406;19.484;2023-07-31T09:42:25;23.00;99.90
19952;DHT22;10137;49.406;19.484;2023-07-31T09:44:52;23.30;99.90
19952;DHT22;10137;49.406;19.484;2023-07-31T09:47:24;23.40;99.90
19952;DHT22;10137;49.406;19.484;2023-07-31T09:49:57;23.40;99.90
19952;DHT22;10137;49.406;19.484;2023-07-31T09:52:26;23.20;99.90
19952;DHT22;10137;49.406;19.484;2023-07-31T09:54:56;22.80;99.90
19952;DHT22;10137;49.406;19.484;2023-07-31T09:57:23;23.00;99.90
19952;DHT22;10137;49.406;19.484;2023-07-31T09:59:55;23.00;99.90
19952;DHT22;10137;49.406;19.484;2023-07-31T10:02:24;23.00;99.90
19952;DHT22;10137;49.406;19.484;2023-07-31T10:04:56;23.10;99.90
19952;DHT22;10137;49.406;19.484;2023-07-31T10:07:25;23.30;99.90
19952;DHT22;10137;49.406;19.484;2023-07-31T10:09:55;23.30;99.90
19952;DHT22;10137;49.406;19.484;2023-07-31T10:12:26;23.30;99.90
19952;DHT22;10137;49.406;19.484;2023-07-31T10:14:55;23.40;99.90
19952;DHT22;10137;49.406;19.484;2023-07-31T10:17:25;23.70;99.90
19952;DHT22;10137;49.406;19.484;2023-07-31T10:19:53;23.90;99.90
19952;DHT22;10137;49.406;19.484;2023-07-31T10:22:21;24.10;99.90
19952;DHT22;10137;49.406;19.484;2023-07-31T10:24:49;24.10;99.90
19952;DHT22;10137;49.406;19.484;2023-07-31T10:27:18;24.30;99.90
19952;DHT22;10137;49.406;19.484;2023-07-31T10:29:47;24.40;99.90
19952;DHT22;10137;49.406;19.484;2023-07-31T10:32:17;24.30;96.40
19952;DHT22;10137;49.406;19.484;2023-07-31T10:34:46;24.10;95.60
19952;DHT22;10137;49.406;19.484;2023-07-31T10:37:27;23.70;95.50
19952;DHT22;10137;49.406;19.484;2023-07-31T10:39:59;23.30;95.40
19952;DHT22;10137;49.406;19.484;2023-07-31T10:42:30;23.10;97.20
19952;DHT22;10137;49.406;19.484;2023-07-31T10:45:00;23.40;98.80
19952;DHT22;10137;49.406;19.484;2023-07-31T10:47:31;23.40;98.20
19952;DHT22;10137;49.406;19.484;2023-07-31T10:50:19;23.40;98.40
19952;DHT22;10137;49.406;19.484;2023-07-31T10:52:47;23.10;97.00
19952;DHT22;10137;49.406;19.484;2023-07-31T10:55:23;23.10;97.40
19952;DHT22;10137;49.406;19.484;2023-07-31T10:57:50;23.00;98.60
19952;DHT22;10137;49.406;19.484;2023-07-31T11:00:22;23.10;98.20
19952;DHT22;10137;49.406;19.484;2023-07-31T11:03:00;23.20;96.30
19952;DHT22;10137;49.406;19.484;2023-07-31T11:06:02;23.40;96.70
19952;DHT22;10137;49.406;19.484;2023-07-31T11:08:31;23.30;95.30
19952;DHT22;10137;49.406;19.484;2023-07-31T11:11:06;23.20;95.10
19952;DHT22;10137;49.406;19.484;2023-07-31T11:13:34;23.20;95.30
19952;DHT22;10137;49.406;19.484;2023-07-31T11:16:06;23.20;95.10
19952;DHT22;10137;49.406;19.484;2023-07-31T11:18:33;23.30;95.50
19952;DHT22;10137;49.406;19.484;2023-07-31T11:21:01;23.30;93.70
19952;DHT22;10137;49.406;19.484;2023-07-31T11:23:28;23.40;93.50
19952;DHT22;10137;49.406;19.484;2023-07-31T11:25:59;23.50;92.40
19952;DHT22;10137;49.406;19.484;2023-07-31T11:28:32;23.50;92.10
19952;DHT22;10137;49.406;19.484;2023-07-31T11:31:00;23.50;92.10
19952;DHT22;10137;49.406;19.484;2023-07-31T11:33:27;23.40;91.90
19952;DHT22;10137;49.406;19.484;2023-07-31T11:35:54;23.40;91.60
19952;DHT22;10137;49.406;19.484;2023-07-31T11:38:25;23.50;92.30
19952;DHT22;10137;49.406;19.484;2023-07-31T11:40:55;23.50;92.80
19952;DHT22;10137;49.406;19.484;2023-07-31T11:43:23;23.50;92.20
19952;DHT22;10137;49.406;19.484;2023-07-31T11:45:53;23.60;92.00
19952;DHT22;10137;49.406;19.484;2023-07-31T11:48:23;23.60;91.30
19952;DHT22;10137;49.406;19.484;2023-07-31T11:50:57;23.50;87.70
19952;DHT22;10137;49.406;19.484;2023-07-31T11:53:31;23.40;88.90
19952;DHT22;10137;49.406;19.484;2023-07-31T11:56:02;23.20;88.20
19952;DHT22;10137;49.406;19.484;2023-07-31T11:58:33;23.20;88.90
19952;DHT22;10137;49.406;19.484;2023-07-31T12:01:01;23.30;90.70
19952;DHT22;10137;49.406;19.484;2023-07-31T12:03:30;23.30;90.40
19952;DHT22;10137;49.406;19.484;2023-07-31T12:05:59;23.30;89.50
19952;DHT22;10137;49.406;19.484;2023-07-31T12:08:32;23.30;88.00
19952;DHT22;10137;49.406;19.484;2023-07-31T12:11:03;23.30;88.20
19952;DHT22;10137;49.406;19.484;2023-07-31T12:13:32;23.40;89.00
19952;DHT22;10137;49.406;19.484;2023-07-31T12:16:01;23.40;87.90
19952;DHT22;10137;49.406;19.484;2023-07-31T12:18:34;23.40;87.30
19952;DHT22;10137;49.406;19.484;2023-07-31T12:21:05;23.40;87.90
19952;DHT22;10137;49.406;19.484;2023-07-31T12:23:36;23.40;88.40
19952;DHT22;10137;49.406;19.484;2023-07-31T12:26:05;23.40;88.00
19952;DHT22;10137;49.406;19.484;2023-07-31T12:28:35;23.30;87.00
19952;DHT22;10137;49.406;19.484;2023-07-31T12:31:04;23.30;89.30
19952;DHT22;10137;49.406;19.484;2023-07-31T12:33:32;23.30;90.20
19952;DHT22;10137;49.406;19.484;2023-07-31T12:36:01;23.30;88.00
19952;DHT22;10137;49.406;19.484;2023-07-31T12:38:29;23.20;87.80
19952;DHT22;10137;49.406;19.484;2023-07-31T12:40:57;23.20;88.90
19952;DHT22;10137;49.406;19.484;2023-07-31T12:43:24;23.10;88.30
19952;DHT22;10137;49.406;19.484;2023-07-31T12:45:53;23.10;89.00
19952;DHT22;10137;49.406;19.484;2023-07-31T12:48:20;23.10;88.60
19952;DHT22;10137;49.406;19.484;2023-07-31T12:50:47;23.10;89.10
19952;DHT22;10137;49.406;19.484;2023-07-31T12:53:15;23.10;89.40
19952;DHT22;10137;49.406;19.484;2023-07-31T12:55:43;23.10;87.60
19952;DHT22;10137;49.406;19.484;2023-07-31T12:58:13;23.20;89.00
19952;DHT22;10137;49.406;19.484;2023-07-31T13:00:40;23.20;89.70
19952;DHT22;10137;49.406;19.484;2023-07-31T13:03:09;23.10;88.10
19952;DHT22;10137;49.406;19.484;2023-07-31T13:05:37;23.10;88.60
19952;DHT22;10137;49.406;19.484;2023-07-31T13:08:04;23.20;90.10
19952;DHT22;10137;49.406;19.484;2023-07-31T13:10:33;23.10;90.10
19952;DHT22;10137;49.406;19.484;2023-07-31T13:13:01;23.10;90.30
19952;DHT22;10137;49.406;19.484;2023-07-31T13:15:30;23.20;90.90
19952;DHT22;10137;49.406;19.484;2023-07-31T13:17:58;23.20;90.80
19952;DHT22;10137;49.406;19.484;2023-07-31T13:20:25;23.10;90.10
19952;DHT22;10137;49.406;19.484;2023-07-31T13:22:52;23.10;90.80
19952;DHT22;10137;49.406;19.484;2023-07-31T13:25:19;23.10;89.70
19952;DHT22;10137;49.406;19.484;2023-07-31T13:27:46;23.20;90.20
19952;DHT22;10137;49.406;19.484;2023-07-31T13:30:13;23.20;86.90
19952;DHT22;10137;49.406;19.484;2023-07-31T13:32:42;23.20;86.40
19952;DHT22;10137;49.406;19.484;2023-07-31T13:35:10;23.30;89.00
19952;DHT22;10137;49.406;19.484;2023-07-31T13:37:37;23.20;85.20
19952;DHT22;10137;49.406;19.484;2023-07-31T13:40:06;23.10;85.10
19952;DHT22;10137;49.406;19.484;2023-07-31T13:42:33;23.00;84.20
19952;DHT22;10137;49.406;19.484;2023-07-31T13:45:00;22.90;84.60
19952;DHT22;10137;49.406;19.484;2023-07-31T13:47:27;22.90;83.70
19952;DHT22;10137;49.406;19.484;2023-07-31T13:49:55;22.80;83.50
19952;DHT22;10137;49.406;19.484;2023-07-31T13:52:22;22.70;82.80
19952;DHT22;10137;49.406;19.484;2023-07-31T13:54:49;22.70;84.00
19952;DHT22;10137;49.406;19.484;2023-07-31T13:57:17;22.80;83.70
19952;DHT22;10137;49.406;19.484;2023-07-31T13:59:44;22.80;82.90
19952;DHT22;10137;49.406;19.484;2023-07-31T14:02:10;22.80;86.00
19952;DHT22;10137;49.406;19.484;2023-07-31T14:04:39;22.90;86.90
19952;DHT22;10137;49.406;19.484;2023-07-31T14:07:07;22.80;82.60
19952;DHT22;10137;49.406;19.484;2023-07-31T14:09:34;22.80;83.50
19952;DHT22;10137;49.406;19.484;2023-07-31T14:12:01;22.80;83.90
19952;DHT22;10137;49.406;19.484;2023-07-31T14:14:28;22.80;84.50
19952;DHT22;10137;49.406;19.484;2023-07-31T14:16:55;22.80;85.90
19952;DHT22;10137;49.406;19.484;2023-07-31T14:19:22;22.80;86.00
19952;DHT22;10137;49.406;19.484;2023-07-31T14:21:50;22.80;86.10
19952;DHT22;10137;49.406;19.484;2023-07-31T14:24:18;22.80;86.50
19952;DHT22;10137;49.406;19.484;2023-07-31T14:26:45;22.80;87.20
19952;DHT22;10137;49.406;19.484;2023-07-31T14:29:12;22.70;86.30
19952;DHT22;10137;49.406;19.484;2023-07-31T14:31:39;22.70;86.50
19952;DHT22;10137;49.406;19.484;2023-07-31T14:34:06;22.70;86.00
19952;DHT22;10137;49.406;19.484;2023-07-31T14:36:33;22.70;86.30
19952;DHT22;10137;49.406;19.484;2023-07-31T14:39:00;22.60;85.80
19952;DHT22;10137;49.406;19.484;2023-07-31T14:41:28;22.50;86.60
19952;DHT22;10137;49.406;19.484;2023-07-31T14:43:55;22.50;87.50
19952;DHT22;10137;49.406;19.484;2023-07-31T14:46:22;22.50;87.80
19952;DHT22;10137;49.406;19.484;2023-07-31T14:48:49;22.50;89.20
19952;DHT22;10137;49.406;19.484;2023-07-31T14:51:16;22.50;87.40
19952;DHT22;10137;49.406;19.484;2023-07-31T14:53:43;22.50;88.90
19952;DHT22;10137;49.406;19.484;2023-07-31T14:56:10;22.50;88.00
19952;DHT22;10137;49.406;19.484;2023-07-31T14:58:39;22.40;88.60
19952;DHT22;10137;49.406;19.484;2023-07-31T15:01:06;22.50;89.30
19952;DHT22;10137;49.406;19.484;2023-07-31T15:03:32;22.50;89.20
19952;DHT22;10137;49.406;19.484;2023-07-31T15:05:59;22.50;88.90
19952;DHT22;10137;49.406;19.484;2023-07-31T15:08:26;22.50;90.00
19952;DHT22;10137;49.406;19.484;2023-07-31T15:10:55;22.50;89.50
19952;DHT22;10137;49.406;19.484;2023-07-31T15:13:27;22.60;90.60
19952;DHT22;10137;49.406;19.484;2023-07-31T15:15:57;22.50;90.60
19952;DHT22;10137;49.406;19.484;2023-07-31T15:18:25;22.50;91.00
19952;DHT22;10137;49.406;19.484;2023-07-31T15:20:54;22.50;90.70
19952;DHT22;10137;49.406;19.484;2023-07-31T15:23:22;22.40;90.00
19952;DHT22;10137;49.406;19.484;2023-07-31T15:25:53;22.40;90.30
19952;DHT22;10137;49.406;19.484;2023-07-31T15:28:21;22.40;90.10
19952;DHT22;10137;49.406;19.484;2023-07-31T15:30:48;22.50;90.90